Time;durP1;ratioP1;P1;durP2;ratioP2;P2;SDS_P1;SDS_P2;PMS_P1;PMS_P2;Temp;Humidity;BMP_temperature;BMP_pressure;BME280_temperature;BME280_humidity;BME280_pressure;Samples;Min_cycle;Max_cycle;Signal;HPM_P1;HPM_P2
2023/01/09 00:01:43;;;;;;;0.10;0.10;;;;;;;5.41;100.00;94565.06;5054644;28;20133;-76
2023/01/09 00:04:29;;;;;;;0.20;0.20;;;;;;;5.45;100.00;94572.25;5055835;28;20461;-76
2023/01/09 00:07:15;;;;;;;0.20;0.20;;;;;;;5.36;100.00;94562.41;5056036;28;20524;-77
2023/01/09 00:10:01;;;;;;;0.10;0.10;;;;;;;5.20;100.00;94559.69;5055853;28;20281;-77
2023/01/09 00:12:47;;;;;;;0.20;0.20;;;;;;;5.06;100.00;94547.19;5054554;28;20055;-77
2023/01/09 00:15:32;;;;;;;0.20;0.20;;;;;;;5.00;100.00;94564.94;5053647;28;20674;-76
2023/01/09 00:18:18;;;;;;;0.20;0.20;;;;;;;4.97;100.00;94553.00;5054592;28;20066;-77
2023/01/09 00:21:08;;;;;;;0.10;0.10;;;;;;;4.99;100.00;94548.25;5040195;28;20044;-76
2023/01/09 00:23:54;;;;;;;0.10;0.10;;;;;;;4.96;100.00;94553.25;5051044;28;20377;-76
2023/01/09 00:26:39;;;;;;;0.20;0.20;;;;;;;4.85;100.00;94533.09;5054480;28;20040;-76
2023/01/09 00:29:27;;;;;;;0.20;0.20;;;;;;;4.83;100.00;94545.81;5040635;28;20621;-77
2023/01/09 00:32:13;;;;;;;0.20;0.20;;;;;;;4.83;100.00;94564.34;5051553;28;20044;-77
2023/01/09 00:34:59;;;;;;;0.20;0.20;;;;;;;4.72;100.00;94574.88;5052350;28;20120;-77
2023/01/09 00:37:45;;;;;;;0.20;0.20;;;;;;;4.63;100.00;94555.22;5019392;28;20040;-77
2023/01/09 00:40:31;;;;;;;0.13;0.13;;;;;;;4.66;100.00;94554.72;5054718;28;20135;-77
2023/01/09 00:43:19;;;;;;;0.10;0.10;;;;;;;4.66;100.00;94557.34;5056116;28;20040;-77
2023/01/09 00:46:06;;;;;;;0.20;0.20;;;;;;;4.69;100.00;94556.84;5055363;28;20131;-77
2023/01/09 00:48:52;;;;;;;0.20;0.20;;;;;;;4.69;100.00;94558.72;5065810;28;20281;-76
2023/01/09 00:51:40;;;;;;;0.10;0.10;;;;;;;4.68;100.00;94573.03;5051104;28;20315;-76
2023/01/09 00:54:27;;;;;;;0.13;0.13;;;;;;;4.85;100.00;94586.09;5052054;28;20040;-76
2023/01/09 00:57:13;;;;;;;0.20;0.20;;;;;;;4.81;100.00;94582.34;5063253;28;20055;-77
2023/01/09 01:00:00;;;;;;;0.10;0.10;;;;;;;4.74;100.00;94588.66;5050058;28;20032;-77
2023/01/09 01:02:46;;;;;;;0.10;0.10;;;;;;;4.70;100.00;94590.25;5052705;28;20319;-77
2023/01/09 01:08:36;;;;;;;0.20;0.20;;;;;;;4.62;100.00;94580.13;5048762;28;20124;-77
2023/01/09 01:11:23;;;;;;;0.20;0.20;;;;;;;4.53;100.00;94565.78;5054178;28;20665;-77
2023/01/09 01:14:09;;;;;;;0.17;0.17;;;;;;;4.47;100.00;94562.28;5052871;28;20097;-77
2023/01/09 01:16:54;;;;;;;0.20;0.20;;;;;;;4.54;100.00;94563.94;5052720;28;20041;-76
2023/01/09 01:19:40;;;;;;;0.20;0.20;;;;;;;4.60;100.00;94561.06;5052225;28;20036;-76
2023/01/09 01:22:26;;;;;;;0.10;0.10;;;;;;;4.72;100.00;94571.44;5038233;28;20049;-77
2023/01/09 01:25:15;;;;;;;0.10;0.10;;;;;;;4.69;100.00;94574.59;5051278;28;20132;-77
2023/01/09 01:28:04;;;;;;;0.20;0.20;;;;;;;4.71;100.00;94577.78;5051854;28;20123;-77
2023/01/09 01:30:50;;;;;;;0.20;0.20;;;;;;;4.68;100.00;94580.97;5049335;28;20040;-78
2023/01/09 01:33:36;;;;;;;0.20;0.20;;;;;;;4.77;100.00;94583.94;5051460;28;20073;-77
2023/01/09 01:36:22;;;;;;;0.20;0.20;;;;;;;4.55;100.00;94578.75;5051963;28;20255;-77
2023/01/09 01:39:08;;;;;;;0.20;0.20;;;;;;;4.37;100.00;94577.34;5052991;28;20163;-77
2023/01/09 01:41:54;;;;;;;0.20;0.20;;;;;;;4.55;100.00;94568.97;5054338;28;20147;-77
2023/01/09 01:45:25;;;;;;;0.20;0.20;;;;;;;4.51;100.00;94551.97;5054545;28;20139;-76
2023/01/09 01:48:18;;;;;;;0.20;0.20;;;;;;;4.37;100.00;94550.84;5054371;28;20597;-76
2023/01/09 01:51:05;;;;;;;0.20;0.20;;;;;;;4.32;100.00;94554.25;5053728;28;20269;-78
2023/01/09 01:53:56;;;;;;;0.10;0.10;;;;;;;4.24;100.00;94567.97;5040577;28;20146;-75
2023/01/09 01:56:45;;;;;;;0.20;0.20;;;;;;;4.17;100.00;94559.44;5064078;28;20049;-74
2023/01/09 01:59:35;;;;;;;0.20;0.20;;;;;;;4.25;100.00;94558.97;5052439;28;20831;-75
2023/01/09 02:02:24;;;;;;;0.17;0.17;;;;;;;4.42;100.00;94558.81;5055149;28;20097;-75
2023/01/09 02:05:10;;;;;;;0.20;0.20;;;;;;;4.44;100.00;94562.03;5055226;28;20382;-75
2023/01/09 02:07:56;;;;;;;0.20;0.20;;;;;;;4.40;100.00;94564.38;5056601;28;20048;-75
2023/01/09 02:10:43;;;;;;;0.10;0.10;;;;;;;4.35;100.00;94563.53;5050749;28;20075;-75
2023/01/09 02:13:32;;;;;;;0.10;0.10;;;;;;;4.43;100.00;94566.50;5052548;28;20246;-75
2023/01/09 02:16:27;;;;;;;0.10;0.10;;;;;;;4.45;100.00;94568.91;5037375;28;20075;-76
2023/01/09 02:20:00;;;;;;;0.17;0.17;;;;;;;4.35;100.00;94576.78;5051335;28;20035;-78
2023/01/09 02:23:11;;;;;;;0.20;0.20;;;;;;;4.27;100.00;94580.69;5050936;28;20038;-76
2023/01/09 02:26:03;;;;;;;0.20;0.20;;;;;;;4.28;100.00;94573.53;5065505;28;20040;-77
2023/01/09 02:29:03;;;;;;;0.10;0.10;;;;;;;4.04;100.00;94578.41;5052600;28;20333;-78
2023/01/09 02:32:17;;;;;;;0.20;0.20;;;;;;;4.09;100.00;94576.59;5048698;28;20040;-76
2023/01/09 02:35:08;;;;;;;0.20;0.20;;;;;;;4.09;100.00;94579.25;5050423;28;20075;-75
2023/01/09 02:38:09;;;;;;;0.20;0.20;;;;;;;4.18;100.00;94587.50;5053835;28;20680;-75
2023/01/09 02:41:05;;;;;;;0.20;0.20;;;;;;;4.26;100.00;94586.25;5051463;28;20039;-75
2023/01/09 02:44:17;;;;;;;0.10;0.10;;;;;;;4.14;100.00;94578.50;5050610;28;20295;-75
2023/01/09 02:47:07;;;;;;;;;;;;;;;4.24;100.00;94588.34;5051104;28;20036;-74
2023/01/09 02:50:00;;;;;;;0.17;0.17;;;;;;;4.29;100.00;94586.56;5051007;28;19920;-75
2023/01/09 02:53:24;;;;;;;0.10;0.10;;;;;;;4.28;100.00;94581.47;5051047;28;20043;-75
2023/01/09 02:56:27;;;;;;;0.13;0.13;;;;;;;4.31;100.00;94583.66;5050420;28;20138;-75
2023/01/09 02:59:40;;;;;;;0.10;0.10;;;;;;;4.40;100.00;94598.00;5048984;28;20042;-75
2023/01/09 03:02:35;;;;;;;0.20;0.20;;;;;;;4.40;100.00;94598.78;5048483;28;20427;-75
2023/01/09 03:05:33;;;;;;;0.20;0.20;;;;;;;4.40;100.00;94609.38;5050943;28;20032;-74
2023/01/09 03:08:23;;;;;;;0.10;0.10;;;;;;;4.40;100.00;94604.09;5051291;28;20040;-75
2023/01/09 03:11:10;;;;;;;0.10;0.10;;;;;;;4.37;100.00;94609.13;5032993;28;20484;-74
2023/01/09 03:14:05;;;;;;;0.13;0.13;;;;;;;4.33;100.00;94605.38;5050021;28;20036;-75
2023/01/09 03:17:01;;;;;;;0.13;0.13;;;;;;;4.33;100.00;94602.72;5049040;28;20332;-75
2023/01/09 03:19:50;;;;;;;0.10;0.10;;;;;;;4.37;100.00;94606.47;5051405;28;20265;-75
2023/01/09 03:22:39;;;;;;;0.20;0.20;;;;;;;4.37;100.00;94606.47;5036002;28;20036;-75
2023/01/09 03:25:26;;;;;;;0.20;0.20;;;;;;;4.38;100.00;94616.81;5052390;28;20037;-76
2023/01/09 03:28:25;;;;;;;0.10;0.10;;;;;;;4.37;100.00;94620.50;5034342;28;20606;-75
2023/01/09 03:31:12;;;;;;;0.20;0.20;;;;;;;4.44;100.00;94626.38;5052462;28;20059;-75
2023/01/09 03:33:58;;;;;;;0.15;0.15;;;;;;;4.44;100.00;94631.69;5044902;28;20044;-77
2023/01/09 03:36:44;;;;;;;0.20;0.20;;;;;;;4.41;100.00;94649.91;5054725;28;20051;-75
2023/01/09 03:39:30;;;;;;;0.20;0.20;;;;;;;4.39;100.00;94647.53;5054096;28;20109;-76
2023/01/09 03:42:16;;;;;;;0.13;0.13;;;;;;;4.42;100.00;94660.25;5051906;28;20878;-75
2023/01/09 03:45:03;;;;;;;0.15;0.15;;;;;;;4.17;100.00;94673.28;5039322;28;20067;-76
2023/01/09 03:47:48;;;;;;;0.10;0.10;;;;;;;4.34;100.00;94666.00;5055428;28;20102;-76
2023/01/09 03:50:37;;;;;;;0.13;0.13;;;;;;;4.35;100.00;94675.53;5056926;28;20151;-76
2023/01/09 03:53:24;;;;;;;0.20;0.20;;;;;;;4.42;100.00;94678.00;5057477;28;20086;-77
2023/01/09 03:56:10;;;;;;;0.13;0.13;;;;;;;4.37;100.00;94683.25;5052249;28;20310;-77
2023/01/09 03:58:56;;;;;;;0.20;0.20;;;;;;;4.40;100.00;94686.19;5059821;28;20033;-76
2023/01/09 04:01:42;;;;;;;0.10;0.10;;;;;;;4.40;100.00;94688.84;5055977;28;20046;-77
2023/01/09 04:04:28;;;;;;;0.20;0.20;;;;;;;4.40;100.00;94688.84;5054605;28;20056;-76
2023/01/09 04:07:15;;;;;;;0.20;0.20;;;;;;;4.46;100.00;94685.19;5052893;28;20128;-75
2023/01/09 04:10:02;;;;;;;0.20;0.20;;;;;;;4.48;100.00;94680.44;5052937;28;20145;-77
2023/01/09 04:12:48;;;;;;;0.20;0.20;;;;;;;4.36;100.00;94682.47;5054584;28;20044;-76
2023/01/09 04:15:34;;;;;;;0.10;0.10;;;;;;;4.14;100.00;94694.97;5055281;28;20051;-76
2023/01/09 04:18:19;;;;;;;0.15;0.15;;;;;;;4.00;100.00;94699.88;5052786;28;20040;-76
2023/01/09 04:21:05;;;;;;;0.20;0.20;;;;;;;3.89;100.00;94714.03;5044835;28;20082;-77
2023/01/09 04:23:51;;;;;;;0.20;0.20;;;;;;;3.87;100.00;94710.84;5043733;28;20651;-76
2023/01/09 04:26:37;;;;;;;0.20;0.20;;;;;;;3.87;100.00;94709.00;5055282;28;20044;-77
2023/01/09 04:29:22;;;;;;;0.20;0.20;;;;;;;3.88;100.00;94707.94;5054323;28;20059;-75
2023/01/09 04:32:08;;;;;;;0.20;0.20;;;;;;;3.83;100.00;94707.91;5052039;28;20036;-77
2023/01/09 04:34:54;;;;;;;0.10;0.10;;;;;;;3.83;100.00;94715.03;5056620;28;20051;-77
2023/01/09 04:37:40;;;;;;;0.20;0.20;;;;;;;3.72;100.00;94705.38;5054032;28;20075;-75
2023/01/09 04:40:26;;;;;;;0.10;0.10;;;;;;;3.51;100.00;94705.16;5051892;28;20310;-75
2023/01/09 04:43:11;;;;;;;0.20;0.20;;;;;;;3.39;100.00;94703.69;5051523;28;20271;-76
2023/01/09 04:46:00;;;;;;;0.20;0.20;;;;;;;3.29;100.00;94693.78;5054855;28;20037;-77
2023/01/09 04:48:46;;;;;;;0.20;0.20;;;;;;;3.31;100.00;94696.97;5053758;28;20635;-74
2023/01/09 04:51:31;;;;;;;0.10;0.10;;;;;;;3.26;100.00;94702.97;5050123;28;20571;-75
2023/01/09 04:54:17;;;;;;;0.20;0.20;;;;;;;3.23;100.00;94697.41;5055650;28;20113;-75
2023/01/09 04:57:04;;;;;;;0.20;0.20;;;;;;;3.20;100.00;94689.97;5051724;28;20729;-76
2023/01/09 04:59:50;;;;;;;0.20;0.20;;;;;;;3.19;100.00;94710.31;5054266;28;20044;-76
2023/01/09 05:02:37;;;;;;;0.10;0.10;;;;;;;3.16;100.00;94704.69;5054038;28;20044;-76
2023/01/09 05:05:22;;;;;;;0.20;0.20;;;;;;;3.16;100.00;94720.56;5043614;28;20039;-76
2023/01/09 05:08:08;;;;;;;0.13;0.13;;;;;;;3.11;100.00;94728.41;5054535;28;20701;-76
2023/01/09 05:10:54;;;;;;;0.10;0.10;;;;;;;3.12;100.00;94735.31;5057427;28;20125;-74
2023/01/09 05:13:40;;;;;;;0.20;0.20;;;;;;;2.99;100.00;94731.16;5042221;28;20036;-74
2023/01/09 05:16:26;;;;;;;0.20;0.20;;;;;;;2.92;100.00;94738.47;5054331;28;20052;-76
2023/01/09 05:19:12;;;;;;;0.20;0.20;;;;;;;2.92;100.00;94744.53;5055223;28;20162;-76
2023/01/09 05:21:58;;;;;;;0.10;0.10;;;;;;;2.93;100.00;94738.22;5067030;28;20113;-76
2023/01/09 05:24:43;;;;;;;0.20;0.20;;;;;;;2.87;100.00;94738.38;5057642;28;20039;-75
2023/01/09 05:27:29;;;;;;;0.10;0.10;;;;;;;2.76;100.00;94746.16;5054421;28;20032;-75
2023/01/09 05:30:18;;;;;;;0.10;0.10;;;;;;;2.73;100.00;94744.00;5038590;28;20043;-74
2023/01/09 05:33:04;;;;;;;0.17;0.17;;;;;;;2.72;100.00;94752.16;5054263;28;20527;-76
2023/01/09 05:35:50;;;;;;;0.20;0.20;;;;;;;2.69;100.00;94755.28;5056931;28;20051;-76
2023/01/09 05:38:36;;;;;;;0.20;0.20;;;;;;;2.67;100.00;94752.09;5053560;28;20041;-76
2023/01/09 05:41:22;;;;;;;0.20;0.20;;;;;;;2.66;100.00;94759.22;5053720;28;20048;-76
2023/01/09 05:44:08;;;;;;;0.20;0.20;;;;;;;2.70;100.00;94759.53;5054817;28;20100;-75
2023/01/09 05:46:53;;;;;;;0.20;0.20;;;;;;;2.65;100.00;94768.19;5052870;28;20352;-75
2023/01/09 05:49:39;;;;;;;0.20;0.20;;;;;;;2.74;100.00;94774.66;5054362;28;20048;-76
2023/01/09 05:52:25;;;;;;;0.20;0.20;;;;;;;2.78;100.00;94782.91;5052478;28;20094;-76
2023/01/09 05:55:12;;;;;;;0.10;0.10;;;;;;;2.90;100.00;94796.03;5053377;28;20040;-76
2023/01/09 05:57:58;;;;;;;0.20;0.20;;;;;;;3.04;100.00;94803.41;5041199;28;20076;-76
2023/01/09 06:00:44;;;;;;;0.10;0.10;;;;;;;3.16;100.00;94789.28;5054160;28;20044;-76
2023/01/09 06:03:30;;;;;;;0.20;0.20;;;;;;;3.25;100.00;94793.13;5056419;28;20045;-75
2023/01/09 06:06:16;;;;;;;0.20;0.20;;;;;;;3.25;100.00;94801.84;5039986;28;20459;-76
2023/01/09 06:09:02;;;;;;;0.10;0.10;;;;;;;3.39;100.00;94793.56;5058336;28;20122;-75
2023/01/09 06:11:48;;;;;;;0.20;0.20;;;;;;;3.45;100.00;94797.91;5053502;28;20135;-76
2023/01/09 06:14:35;;;;;;;0.20;0.20;;;;;;;3.42;100.00;94804.44;5040133;28;20052;-76
2023/01/09 06:17:21;;;;;;;0.20;0.20;;;;;;;3.53;100.00;94795.63;5053753;28;20078;-76
2023/01/09 06:20:09;;;;;;;0.20;0.20;;;;;;;3.58;100.00;94806.28;5054605;28;20596;-76
2023/01/09 06:22:55;;;;;;;0.20;0.20;;;;;;;3.56;100.00;94795.13;5053579;28;20036;-75
2023/01/09 06:25:41;;;;;;;0.20;0.20;;;;;;;3.62;100.00;94803.94;5053821;28;20040;-77
2023/01/09 06:28:27;;;;;;;0.20;0.20;;;;;;;3.58;100.00;94816.88;5050899;28;20645;-76
2023/01/09 06:31:13;;;;;;;0.20;0.20;;;;;;;3.57;100.00;94814.44;5063506;28;20121;-76
2023/01/09 06:33:59;;;;;;;0.15;0.15;;;;;;;3.50;100.00;94812.00;5055155;28;20044;-77
2023/01/09 06:36:44;;;;;;;0.20;0.20;;;;;;;3.57;100.00;94812.59;5053208;28;20082;-76
2023/01/09 06:39:30;;;;;;;0.20;0.20;;;;;;;3.44;100.00;94817.47;5051619;28;20037;-77
2023/01/09 06:42:16;;;;;;;0.10;0.10;;;;;;;3.57;100.00;94817.09;5051525;28;20063;-77
2023/01/09 06:45:02;;;;;;;0.20;0.20;;;;;;;3.62;100.00;94815.31;5051562;28;20103;-77
2023/01/09 06:47:48;;;;;;;0.20;0.20;;;;;;;3.59;100.00;94826.41;5053917;28;20047;-77
2023/01/09 06:50:34;;;;;;;0.13;0.13;;;;;;;3.59;100.00;94826.41;5040258;28;20047;-77
2023/01/09 06:53:20;;;;;;;0.20;0.20;;;;;;;3.63;100.00;94829.34;5050414;28;20522;-76
2023/01/09 06:56:06;;;;;;;0.10;0.10;;;;;;;3.67;100.00;94832.31;5051212;28;20029;-79
2023/01/09 06:58:52;;;;;;;0.20;0.20;;;;;;;3.58;100.00;94845.97;5054846;28;20048;-75
2023/01/09 07:01:38;;;;;;;0.10;0.10;;;;;;;3.63;100.00;94843.38;5054487;28;20037;-73
2023/01/09 07:04:24;;;;;;;0.15;0.15;;;;;;;3.57;100.00;94838.25;5051759;28;20123;-76
2023/01/09 07:07:13;;;;;;;0.20;0.20;;;;;;;3.63;100.00;94848.66;5040700;28;20273;-77
2023/01/09 07:09:59;;;;;;;0.20;0.20;;;;;;;3.54;100.00;94836.91;5051576;28;20044;-76
2023/01/09 07:12:45;;;;;;;0.17;0.17;;;;;;;3.48;100.00;94839.72;5053494;28;20182;-75
2023/01/09 07:15:31;;;;;;;0.20;0.20;;;;;;;3.52;100.00;94841.63;5050247;28;20448;-75
2023/01/09 07:18:17;;;;;;;0.20;0.20;;;;;;;3.51;100.00;94849.81;5049595;28;20147;-75
2023/01/09 07:21:05;;;;;;;0.20;0.20;;;;;;;3.66;100.00;94857.16;5049644;28;20071;-76
2023/01/09 07:23:50;;;;;;;0.10;0.10;;;;;;;3.77;100.00;94856.25;5051184;28;20475;-77
2023/01/09 07:26:36;;;;;;;0.20;0.20;;;;;;;3.49;100.00;94850.03;5055557;28;20140;-75
2023/01/09 07:29:22;;;;;;;0.10;0.10;;;;;;;3.63;100.00;94856.59;5052246;28;20080;-74
2023/01/09 07:32:08;;;;;;;0.20;0.20;;;;;;;3.60;100.00;94854.44;5048168;28;20059;-76
2023/01/09 07:34:54;;;;;;;0.10;0.10;;;;;;;3.59;100.00;94852.06;5054356;28;20068;-76
2023/01/09 07:37:40;;;;;;;0.10;0.10;;;;;;;3.55;100.00;94867.59;5053941;28;20039;-76
2023/01/09 07:40:26;;;;;;;0.10;0.10;;;;;;;3.62;100.00;94868.22;5038940;28;20071;-76
2023/01/09 07:43:11;;;;;;;0.20;0.20;;;;;;;3.71;100.00;94871.25;5051447;28;20660;-76
2023/01/09 07:45:57;;;;;;;0.10;0.10;;;;;;;3.63;100.00;94882.25;5041004;28;20094;-77
2023/01/09 07:48:43;;;;;;;0.10;0.10;;;;;;;3.68;100.00;94871.75;5041049;28;20048;-75
2023/01/09 07:51:29;;;;;;;0.10;0.10;;;;;;;3.58;100.00;94884.81;5050356;28;20919;-74
2023/01/09 07:54:15;;;;;;;0.10;0.10;;;;;;;3.78;100.00;94876.38;5038980;28;20060;-77
2023/01/09 07:57:01;;;;;;;0.10;0.10;;;;;;;3.55;100.00;94883.47;5055025;28;20057;-76
2023/01/09 07:59:47;;;;;;;0.20;0.20;;;;;;;3.62;100.00;94880.66;5053691;28;20412;-76
2023/01/09 08:02:33;;;;;;;0.20;0.20;;;;;;;3.65;100.00;94885.44;5052369;28;20041;-76
2023/01/09 08:05:20;;;;;;;0.20;0.20;;;;;;;3.62;100.00;94884.09;5053989;28;20051;-76
2023/01/09 08:08:06;;;;;;;0.20;0.20;;;;;;;3.73;100.00;94889.53;5065180;28;20091;-75
2023/01/09 08:10:52;;;;;;;0.20;0.20;;;;;;;3.68;100.00;94889.47;5052681;28;20040;-76
2023/01/09 08:13:38;;;;;;;0.20;0.20;;;;;;;3.77;100.00;94890.66;5045982;28;20570;-75
2023/01/09 08:16:24;;;;;;;0.20;0.20;;;;;;;3.88;100.00;94911.69;5051789;28;20064;-75
2023/01/09 08:19:10;;;;;;;0.20;0.20;;;;;;;3.74;100.00;94894.59;5055478;28;20441;-77
2023/01/09 08:21:56;;;;;;;0.20;0.20;;;;;;;3.52;100.00;94901.69;5049705;28;20485;-74
2023/01/09 08:24:43;;;;;;;0.20;0.20;;;;;;;3.61;100.00;94906.31;5059944;28;20518;-75
2023/01/09 08:27:29;;;;;;;0.10;0.10;;;;;;;3.58;100.00;94905.97;5057520;28;20052;-76
2023/01/09 08:30:16;;;;;;;0.20;0.20;;;;;;;3.63;100.00;94900.78;5056377;28;20051;-78
2023/01/09 08:33:02;;;;;;;0.20;0.20;;;;;;;3.80;100.00;94904.19;5044305;28;20051;-75
2023/01/09 08:35:48;;;;;;;0.20;0.20;;;;;;;3.96;100.00;94899.91;5059082;28;20048;-77
2023/01/09 08:38:34;;;;;;;0.20;0.20;;;;;;;3.89;100.00;94897.44;5054110;28;20075;-76
2023/01/09 08:47:32;;;;;;;0.20;0.20;;;;;;;4.28;100.00;94894.78;5054687;28;20043;-76
2023/01/09 08:50:18;;;;;;;0.20;0.20;;;;;;;4.18;100.00;94906.00;5058889;28;20059;-76
2023/01/09 08:53:04;;;;;;;0.20;0.20;;;;;;;4.18;100.00;94907.88;5055155;28;20483;-77
2023/01/09 08:55:50;;;;;;;0.20;0.20;;;;;;;4.10;100.00;94918.88;5058987;28;20064;-75
2023/01/09 08:58:36;;;;;;;0.20;0.20;;;;;;;4.13;100.00;94911.25;5056862;28;20036;-75
2023/01/09 09:01:21;;;;;;;0.20;0.20;;;;;;;4.14;100.00;94907.56;5052325;28;20384;-76
2023/01/09 09:04:07;;;;;;;0.20;0.20;;;;;;;4.08;100.00;94908.53;5057911;28;20365;-77
2023/01/09 09:06:54;;;;;;;0.20;0.20;;;;;;;3.98;100.00;94903.13;5055956;28;20044;-76
2023/01/09 09:09:39;;;;;;;0.20;0.20;;;;;;;3.99;100.00;94906.56;5048356;28;20040;-76
2023/01/09 09:12:25;;;;;;;0.20;0.20;;;;;;;4.17;100.00;94915.00;5055232;28;20029;-76
2023/01/09 09:15:11;;;;;;;0.20;0.20;;;;;;;4.05;100.00;94906.41;5040949;28;20040;-77
2023/01/09 09:18:00;;;;;;;0.20;0.20;;;;;;;4.06;100.00;94912.50;5056667;28;20055;-76
2023/01/09 09:20:46;;;;;;;0.20;0.20;;;;;;;3.96;100.00;94915.78;5057047;28;20044;-75
2023/01/09 09:23:32;;;;;;;0.20;0.20;;;;;;;4.11;100.00;94929.22;5053840;28;20044;-77
2023/01/09 09:26:18;;;;;;;0.20;0.20;;;;;;;4.12;100.00;94909.63;5056512;28;20048;-77
2023/01/09 09:29:03;;;;;;;0.10;0.10;;;;;;;4.00;100.00;94911.63;5055336;28;20043;-76
2023/01/09 09:31:49;;;;;;;0.20;0.20;;;;;;;4.05;100.00;94911.69;5038846;28;20053;-76
2023/01/09 09:34:35;;;;;;;0.20;0.20;;;;;;;4.24;100.00;94916.69;5054185;28;20504;-78
2023/01/09 09:37:21;;;;;;;0.20;0.20;;;;;;;4.10;100.00;94906.44;5055059;28;20432;-75
2023/01/09 09:40:15;;;;;;;0.20;0.20;;;;;;;4.03;100.00;94916.41;5059077;28;20066;-77
2023/01/09 09:46:21;;;;;;;0.30;0.30;;;;;;;4.14;100.00;94922.66;5055160;28;20133;-78
2023/01/09 09:49:48;;;;;;;0.20;0.20;;;;;;;4.12;100.00;94935.31;5056221;28;20046;-77
2023/01/09 09:53:02;;;;;;;0.20;0.20;;;;;;;4.21;100.00;94933.06;5054418;28;20048;-77
2023/01/09 09:55:49;;;;;;;0.20;0.20;;;;;;;4.24;100.00;94921.97;5058051;28;20493;-76
2023/01/09 09:58:39;;;;;;;0.20;0.20;;;;;;;4.47;100.00;94929.69;5055370;28;20388;-77
2023/01/09 10:01:38;;;;;;;0.20;0.20;;;;;;;4.39;100.00;94943.34;5055201;28;20422;-77
2023/01/09 10:04:27;;;;;;;0.10;0.10;;;;;;;4.52;100.00;94955.44;5053808;28;20356;-77
2023/01/09 10:07:26;;;;;;;0.20;0.20;;;;;;;4.66;100.00;94936.25;5049926;28;20422;-78
2023/01/09 10:10:27;;;;;;;0.20;0.20;;;;;;;4.61;100.00;94941.50;5052130;28;20044;-78
2023/01/09 10:16:31;;;;;;;0.20;0.20;;;;;;;4.41;100.00;94938.59;5052843;28;20149;-78
2023/01/09 10:19:36;;;;;;;0.10;0.10;;;;;;;4.58;100.00;94931.38;5054988;28;20067;-77
2023/01/09 10:23:01;;;;;;;0.20;0.20;;;;;;;4.75;100.00;94936.63;5055434;28;20387;-75
2023/01/09 10:25:55;;;;;;;0.20;0.20;;;;;;;4.87;100.00;94939.13;5055845;28;20037;-78
2023/01/09 10:29:07;;;;;;;0.20;0.20;;;;;;;4.85;100.00;94933.28;5040094;28;20530;-76
2023/01/09 10:32:10;;;;;;;0.20;0.20;;;;;;;4.84;100.00;94923.72;5056345;27;20051;-78
2023/01/09 10:35:07;;;;;;;0.20;0.20;;;;;;;5.01;100.00;94927.09;5027777;28;20182;-78
2023/01/09 10:37:56;;;;;;;0.20;0.20;;;;;;;4.91;100.00;94933.09;5046811;28;20420;-78
2023/01/09 10:40:47;;;;;;;0.10;0.10;;;;;;;4.72;100.00;94937.09;5054779;28;20083;-77
2023/01/09 10:43:58;;;;;;;0.20;0.20;;;;;;;4.67;100.00;94935.22;5038681;28;20059;-80
2023/01/09 10:46:54;;;;;;;0.20;0.20;;;;;;;4.79;100.00;94939.56;5053547;28;20570;-77
2023/01/09 10:49:40;;;;;;;0.20;0.20;;;;;;;4.84;100.00;94947.59;5043683;28;20078;-78
2023/01/09 10:52:35;;;;;;;0.20;0.20;;;;;;;4.73;100.00;94933.41;5053197;28;20084;-77
2023/01/09 10:55:26;;;;;;;0.20;0.20;;;;;;;4.78;100.00;94937.97;5028528;28;20770;-76
2023/01/09 10:58:15;;;;;;;0.20;0.20;;;;;;;4.73;100.00;94936.06;5023287;28;20056;-77
2023/01/09 11:01:03;;;;;;;0.20;0.20;;;;;;;4.65;100.00;94942.59;5054903;28;20084;-77
2023/01/09 11:03:49;;;;;;;0.20;0.20;;;;;;;4.63;100.00;94930.66;5058527;28;20088;-75
2023/01/09 11:06:49;;;;;;;0.20;0.20;;;;;;;4.93;100.00;94946.09;5054814;28;20044;-77
2023/01/09 11:09:56;;;;;;;0.13;0.13;;;;;;;4.93;100.00;94935.47;5052470;28;20101;-76
2023/01/09 11:12:42;;;;;;;0.20;0.20;;;;;;;4.97;100.00;94928.63;5055971;28;20475;-76
2023/01/09 11:15:29;;;;;;;0.20;0.20;;;;;;;4.93;100.00;94940.78;5055464;28;20086;-76
2023/01/09 11:18:18;;;;;;;0.13;0.13;;;;;;;4.98;100.00;94946.94;5070346;28;20485;-75
2023/01/09 11:21:24;;;;;;;0.20;0.20;;;;;;;5.18;100.00;94950.84;5053824;28;20650;-77
2023/01/09 11:24:24;;;;;;;0.20;0.20;;;;;;;5.07;100.00;94949.94;5043697;28;20516;-77
2023/01/09 11:27:13;;;;;;;0.10;0.10;;;;;;;5.07;100.00;94949.16;5054189;28;20071;-77
2023/01/09 11:30:08;;;;;;;0.20;0.20;;;;;;;5.14;100.00;94955.84;5056788;28;20051;-76
2023/01/09 11:32:58;;;;;;;0.13;0.13;;;;;;;5.17;100.00;94949.25;4700327;28;10000376;-75
2023/01/09 11:35:58;;;;;;;0.13;0.13;;;;;;;4.85;100.00;94955.28;4706867;28;10001165;-76
2023/01/09 11:38:51;;;;;;;0.10;0.10;;;;;;;4.81;100.00;94948.88;5054375;28;20032;-75
2023/01/09 11:41:37;;;;;;;0.20;0.20;;;;;;;4.85;100.00;94947.34;5051995;28;20032;-77
2023/01/09 11:44:23;;;;;;;0.15;0.15;;;;;;;4.82;100.00;94957.63;5053639;28;20036;-75
2023/01/09 11:47:38;;;;;;;0.10;0.10;;;;;;;4.73;100.00;94958.06;5052421;28;20072;-76
2023/01/09 11:50:26;;;;;;;0.20;0.20;;;;;;;4.89;100.00;94960.88;5051422;28;20284;-76
2023/01/09 11:53:15;;;;;;;0.17;0.17;;;;;;;4.83;100.00;94948.63;5054372;28;20051;-77
2023/01/09 11:56:02;;;;;;;0.20;0.20;;;;;;;4.58;100.00;94955.22;5055350;28;20063;-77
2023/01/09 11:58:48;;;;;;;0.17;0.17;;;;;;;4.67;100.00;94958.25;5058229;28;20044;-76
2023/01/09 12:01:52;;;;;;;0.20;0.20;;;;;;;4.71;100.00;94960.16;5054858;28;20105;-75
2023/01/09 12:04:49;;;;;;;0.20;0.20;;;;;;;4.72;100.00;94964.41;5041630;28;20447;-75
2023/01/09 12:07:57;;;;;;;0.20;0.20;;;;;;;4.83;100.00;94954.75;5053736;28;20285;-76
2023/01/09 12:10:59;;;;;;;0.10;0.10;;;;;;;4.67;100.00;94958.25;5052614;28;20897;-76
2023/01/09 12:14:22;;;;;;;0.20;0.20;;;;;;;4.98;100.00;94944.31;5042695;28;20541;-75
2023/01/09 12:17:14;;;;;;;0.20;0.20;;;;;;;4.93;100.00;94951.38;5040205;28;20210;-76
2023/01/09 12:20:24;;;;;;;0.20;0.20;;;;;;;4.95;100.00;94949.28;5055651;28;20500;-77
2023/01/09 12:23:13;;;;;;;0.20;0.20;;;;;;;4.91;100.00;94948.19;5039963;28;20043;-77
2023/01/09 12:26:33;;;;;;;0.20;0.20;;;;;;;4.78;100.00;94943.28;5053714;28;20036;-75
2023/01/09 12:29:53;;;;;;;0.20;0.20;;;;;;;4.84;100.00;94947.59;5056811;28;20054;-76
2023/01/09 12:32:49;;;;;;;0.20;0.20;;;;;;;5.00;100.00;94952.00;5053222;28;20040;-75
2023/01/09 12:35:58;;;;;;;0.20;0.20;;;;;;;4.82;100.00;94954.97;5020679;28;20040;-75
2023/01/09 12:39:18;;;;;;;0.10;0.10;;;;;;;4.72;100.00;94943.22;5028217;28;20118;-75
2023/01/09 12:42:45;;;;;;;0.13;0.13;;;;;;;4.54;100.00;94940.88;5054835;28;20043;-76
2023/01/09 12:46:09;;;;;;;0.10;0.10;;;;;;;4.75;100.00;94945.38;5053605;28;20044;-77
2023/01/09 12:49:20;;;;;;;0.20;0.20;;;;;;;4.56;100.00;94940.63;5069441;28;20177;-77
2023/01/09 12:52:22;;;;;;;0.20;0.20;;;;;;;5.00;100.00;94944.03;5053514;28;20526;-76
2023/01/09 12:55:18;;;;;;;0.20;0.20;;;;;;;4.82;100.00;94952.31;5055362;28;20045;-78
2023/01/09 12:58:48;;;;;;;0.20;0.20;;;;;;;5.05;100.00;94954.69;5051191;28;20114;-76
2023/01/09 13:01:47;;;;;;;0.13;0.13;;;;;;;5.08;100.00;94954.19;5036240;28;20416;-76
2023/01/09 13:04:39;;;;;;;0.20;0.20;;;;;;;4.96;100.00;94954.31;5058487;28;20376;-75
2023/01/09 13:07:40;;;;;;;0.20;0.20;;;;;;;4.97;100.00;94944.53;5052781;28;20754;-74
2023/01/09 13:10:51;;;;;;;0.10;0.10;;;;;;;5.09;100.00;94962.94;5052141;28;20871;-76
2023/01/09 13:13:46;;;;;;;0.20;0.20;;;;;;;5.06;100.00;94966.91;5057132;28;20036;-76
2023/01/09 13:16:40;;;;;;;0.20;0.20;;;;;;;4.97;100.00;94963.88;5054951;28;20040;-76
2023/01/09 13:19:36;;;;;;;0.20;0.20;;;;;;;5.03;100.00;94972.69;5057516;28;20047;-75
2023/01/09 13:22:26;;;;;;;0.20;0.20;;;;;;;5.17;100.00;94967.81;5054200;28;20063;-74
2023/01/09 13:25:15;;;;;;;0.20;0.20;;;;;;;5.18;100.00;94977.34;5069129;28;20145;-76
2023/01/09 13:28:12;;;;;;;0.20;0.20;;;;;;;5.16;100.00;94972.31;5056633;28;20703;-76
2023/01/09 13:31:35;;;;;;;0.10;0.10;;;;;;;4.93;100.00;94978.69;5057184;28;20051;-76
2023/01/09 13:34:24;;;;;;;0.20;0.20;;;;;;;5.10;100.00;94975.16;5055681;28;20028;-77
2023/01/09 13:37:26;;;;;;;0.20;0.20;;;;;;;5.07;100.00;94987.06;5056752;28;20051;-76
2023/01/09 13:40:14;;;;;;;;;;;;;;;5.31;100.00;94991.03;5068792;27;20032;-77
2023/01/09 13:43:07;;;;;;;0.10;0.10;;;;;;;5.25;100.00;94999.19;5055809;28;19920;-76